Terminal Aerodrome Forecast
Issued by NWS

Home | Current Version | Previous Version | Text Only | Print | Product List | Glossary On
Versions: 1 2 3 4 5 6 7 8 9 10 11 12 13 14 15 16
253
FTPA31 PHFO 272329
TAFHJR
TAF
PHJR 272329Z 2800/2824 13011KT P6SM FEW025 SCT040
     FM280400 VRB03KT P6SM FEW040
     FM281900 13011KT P6SM FEW025 SCT040=

USA.gov is the U.S. government's official web portal to all federal, state and local government web resources and services.